Time;durP1;ratioP1;P1;durP2;ratioP2;P2;SDS_P1;SDS_P2;PMS_P1;PMS_P2;Temp;Humidity;BMP_temperature;BMP_pressure;BME280_temperature;BME280_humidity;BME280_pressure;Samples;Min_cycle;Max_cycle;Signal;HPM_P1;HPM_P2
2021/12/09 00:02:06;;;;;;;38.85;20.05;;;;;;;-1.76;100.00;100381.91;5116382;28;20084;-74
2021/12/09 00:04:31;;;;;;;42.47;18.83;;;;;;;-1.81;100.00;100383.13;5115098;28;20050;-74
2021/12/09 00:07:00;;;;;;;44.10;18.60;;;;;;;-1.82;100.00;100389.28;5115061;27;20032;-74
2021/12/09 00:09:25;;;;;;;41.88;17.20;;;;;;;-1.85;100.00;100384.25;5112452;28;20426;-76
2021/12/09 00:11:51;;;;;;;36.63;16.65;;;;;;;-1.97;100.00;100375.50;5115786;28;20054;-75
2021/12/09 00:14:22;;;;;;;39.40;17.13;;;;;;;-1.93;100.00;100371.75;5114759;28;20038;-74
2021/12/09 00:16:48;;;;;;;48.22;19.30;;;;;;;-1.91;100.00;100385.47;5115852;28;20028;-74
2021/12/09 00:19:14;;;;;;;41.67;18.88;;;;;;;-1.98;100.00;100376.44;5114706;28;20020;-74
2021/12/09 00:21:39;;;;;;;43.10;18.15;;;;;;;-1.90;100.00;100381.97;5103279;28;20410;-74
2021/12/09 00:24:05;;;;;;;40.58;18.63;;;;;;;-2.05;100.00;100378.59;5109579;28;20030;-72
2021/12/09 00:26:31;;;;;;;45.78;19.38;;;;;;;-1.95;100.00;100376.22;5114671;28;20061;-76
2021/12/09 00:28:56;;;;;;;37.90;17.77;;;;;;;-1.91;100.00;100364.69;5114343;28;20027;-75
2021/12/09 00:31:23;;;;;;;36.63;19.50;;;;;;;-1.82;100.00;100374.50;5115553;28;20046;-74
2021/12/09 00:33:49;;;;;;;33.05;15.05;;;;;;;-1.84;100.00;100370.31;5114114;28;20551;-75
2021/12/09 00:36:26;;;;;;;45.97;17.95;;;;;;;-1.82;100.00;100373.69;5109300;28;20032;-76
2021/12/09 00:38:56;;;;;;;34.90;17.45;;;;;;;-1.78;100.00;100375.97;5111075;28;20157;-76
2021/12/09 00:41:22;;;;;;;38.00;17.90;;;;;;;-1.82;100.00;100384.91;5113049;28;20395;-74
2021/12/09 00:43:48;;;;;;;34.97;16.77;;;;;;;-1.80;100.00;100385.63;5115043;28;20024;-75
2021/12/09 00:46:15;;;;;;;39.10;18.83;;;;;;;-1.80;100.00;100383.03;5113444;27;20027;-78
2021/12/09 00:48:41;;;;;;;38.90;17.23;;;;;;;-1.79;100.00;100382.09;5113200;28;20398;-75
2021/12/09 00:51:07;;;;;;;44.85;17.30;;;;;;;-1.76;100.00;100383.69;5103706;28;20024;-75
2021/12/09 00:53:33;;;;;;;36.47;17.52;;;;;;;-1.86;100.00;100380.00;5112011;28;20024;-76
2021/12/09 00:55:59;;;;;;;47.55;20.42;;;;;;;-1.85;100.00;100381.66;5110838;28;20040;-75
2021/12/09 00:58:25;;;;;;;41.08;17.85;;;;;;;-1.85;100.00;100386.84;5100258;27;20047;-75
2021/12/09 01:00:50;;;;;;;36.15;16.63;;;;;;;-1.84;100.00;100383.31;5110783;28;20024;-76
2021/12/09 01:03:17;;;;;;;37.83;18.33;;;;;;;-1.95;100.00;100379.66;5114880;28;20390;-75
2021/12/09 01:05:45;;;;;;;41.47;17.13;;;;;;;-1.86;100.00;100378.22;5112879;28;20028;-74
2021/12/09 01:08:11;;;;;;;35.30;16.98;;;;;;;-1.95;100.00;100374.47;5114741;28;20032;-77
2021/12/09 01:10:37;;;;;;;38.28;16.90;;;;;;;-1.90;100.00;100394.97;5110084;28;20020;-75
2021/12/09 01:13:03;;;;;;;35.20;17.45;;;;;;;-1.88;100.00;100392.25;5113677;28;20032;-74
2021/12/09 01:15:29;;;;;;;49.22;19.73;;;;;;;-1.92;100.00;100391.63;5114251;28;20027;-74
2021/12/09 01:17:56;;;;;;;43.97;19.20;;;;;;;-1.83;100.00;100385.00;5114414;28;20165;-74
2021/12/09 01:20:25;;;;;;;40.60;18.00;;;;;;;-1.95;100.00;100384.84;5109703;28;20030;-74
2021/12/09 01:22:56;;;;;;;44.03;19.30;;;;;;;-1.95;100.00;100371.84;5114357;28;20047;-75
2021/12/09 01:25:23;;;;;;;32.67;16.77;;;;;;;-1.86;100.00;100378.22;5112972;28;20106;-75
2021/12/09 01:27:52;;;;;;;30.60;17.48;;;;;;;-1.82;100.00;100389.28;5112601;28;20450;-74
2021/12/09 01:30:20;;;;;;;43.92;15.57;;;;;;;-1.84;100.00;100383.31;5113403;28;20028;-74
2021/12/09 01:32:51;;;;;;;43.20;17.70;;;;;;;-1.77;100.00;100388.03;5111854;28;20390;-74
2021/12/09 01:35:27;;;;;;;39.00;18.25;;;;;;;-1.82;100.00;100384.91;5112489;28;20028;-74
2021/12/09 01:37:56;;;;;;;37.42;16.90;;;;;;;-1.83;100.00;100385.84;5114041;28;20126;-74
2021/12/09 01:40:23;;;;;;;39.17;18.30;;;;;;;-1.92;100.00;100373.41;5110309;28;20459;-76
2021/12/09 01:42:49;;;;;;;39.95;15.77;;;;;;;-1.90;100.00;100392.38;5105480;28;20031;-74
2021/12/09 01:45:14;;;;;;;39.47;18.92;;;;;;;-1.95;100.00;100390.06;5112566;28;20073;-75
2021/12/09 01:47:40;;;;;;;41.70;17.17;;;;;;;-2.02;100.00;100387.94;5098621;27;20425;-76
2021/12/09 01:50:07;;;;;;;41.30;18.05;;;;;;;-1.88;100.00;100384.47;5113702;28;20023;-74
2021/12/09 01:52:34;;;;;;;37.63;18.42;;;;;;;-1.88;100.00;100389.66;5112377;28;20031;-74
2021/12/09 01:54:59;;;;;;;44.95;17.30;;;;;;;-1.88;100.00;100397.47;5107863;28;20032;-74
2021/12/09 01:57:25;;;;;;;31.88;17.63;;;;;;;-1.93;100.00;100383.91;5113908;28;20039;-75
2021/12/09 01:59:51;;;;;;;36.15;16.00;;;;;;;-1.85;100.00;100387.69;5111157;28;20016;-73
2021/12/09 02:02:16;;;;;;;39.10;18.52;;;;;;;-1.89;100.00;100394.03;5096266;28;20035;-74
2021/12/09 02:04:43;;;;;;;34.30;17.02;;;;;;;-1.79;100.00;100395.09;5113099;28;20062;-74
2021/12/09 02:07:09;;;;;;;37.83;17.58;;;;;;;-1.83;100.00;100398.84;5096886;28;20032;-74
2021/12/09 02:09:35;;;;;;;40.90;17.08;;;;;;;-1.83;100.00;100387.63;5109553;28;20020;-75
2021/12/09 02:12:02;;;;;;;39.63;18.42;;;;;;;-1.85;100.00;100403.28;5112439;28;20047;-74
2021/12/09 02:14:28;;;;;;;36.60;16.80;;;;;;;-1.91;100.00;100395.88;5111449;28;20027;-74
2021/12/09 02:16:53;;;;;;;34.38;15.90;;;;;;;-2.02;100.00;100383.59;5112431;28;20545;-74
2021/12/09 02:19:19;;;;;;;42.85;17.92;;;;;;;-1.90;100.00;100394.97;5113390;28;20031;-72
2021/12/09 02:21:44;;;;;;;33.45;15.63;;;;;;;-2.02;100.00;100388.78;5101642;28;20023;-73
2021/12/09 02:24:15;;;;;;;33.58;17.27;;;;;;;-1.97;100.00;100394.53;5107669;28;20390;-77
2021/12/09 02:26:44;;;;;;;38.63;18.83;;;;;;;-1.95;100.00;100410.03;5113229;28;20044;-72
2021/12/09 02:29:11;;;;;;;44.60;17.92;;;;;;;-1.95;100.00;100410.03;5104914;28;20070;-77
2021/12/09 02:31:38;;;;;;;34.03;18.90;;;;;;;-2.01;100.00;100398.25;5110912;28;20020;-75
2021/12/09 02:34:05;;;;;;;39.38;17.52;;;;;;;-1.93;100.00;100408.16;5095312;28;20115;-77
2021/12/09 02:36:36;;;;;;;41.65;18.55;;;;;;;-1.94;100.00;100401.28;5109797;28;20019;-75
2021/12/09 02:39:06;;;;;;;33.45;17.50;;;;;;;-1.88;100.00;100411.28;5104020;28;20128;-74
2021/12/09 02:41:34;;;;;;;39.28;17.58;;;;;;;-1.90;100.00;100412.34;5111901;28;20038;-73
2021/12/09 02:44:03;;;;;;;35.67;18.35;;;;;;;-1.97;100.00;100417.09;5097107;28;20061;-74
2021/12/09 02:46:34;;;;;;;38.28;18.80;;;;;;;-1.89;100.00;100430.44;5106325;28;20032;-74
2021/12/09 02:49:00;;;;;;;32.90;16.45;;;;;;;-1.91;100.00;100416.66;5110062;28;20367;-74
2021/12/09 02:51:25;;;;;;;39.42;17.38;;;;;;;-1.94;100.00;100416.88;5112842;28;20038;-74
2021/12/09 02:53:51;;;;;;;51.10;20.02;;;;;;;-2.04;100.00;100408.84;5112563;28;20028;-74
2021/12/09 02:56:19;;;;;;;42.22;18.60;;;;;;;-1.93;100.00;100421.16;5110223;28;20389;-75
2021/12/09 02:58:45;;;;;;;50.25;18.30;;;;;;;-1.94;100.00;100427.28;5112159;28;20027;-75
2021/12/09 03:01:16;;;;;;;34.88;17.05;;;;;;;-1.91;100.00;100432.28;5111590;28;20042;-72
2021/12/09 03:03:52;;;;;;;39.72;16.80;;;;;;;-1.89;100.00;100435.63;5096531;28;20414;-75
2021/12/09 03:06:20;;;;;;;44.85;19.10;;;;;;;-1.96;100.00;100431.75;5111465;28;20426;-74
2021/12/09 03:08:46;;;;;;;30.60;15.98;;;;;;;-2.02;100.00;100430.38;5111979;28;20040;-74
2021/12/09 03:11:19;;;;;;;43.53;18.35;;;;;;;-2.02;100.00;100440.75;5105522;28;20039;-75
2021/12/09 03:13:45;;;;;;;45.50;17.07;;;;;;;-1.99;100.00;100447.53;5110807;28;20031;-74
2021/12/09 03:16:11;;;;;;;38.03;16.83;;;;;;;-1.98;100.00;100442.25;5112711;28;20575;-74
2021/12/09 03:18:47;;;;;;;34.13;18.80;;;;;;;-1.91;100.00;100449.63;5111458;28;20028;-74
2021/12/09 03:21:15;;;;;;;35.33;17.55;;;;;;;-1.96;100.00;100460.34;5110833;28;20524;-74
2021/12/09 03:23:41;;;;;;;39.45;19.48;;;;;;;-1.92;100.00;100458.38;5111305;28;20031;-75
2021/12/09 03:26:07;;;;;;;38.67;18.55;;;;;;;-1.99;100.00;100457.91;5094723;28;20024;-73
2021/12/09 03:28:32;;;;;;;41.42;18.45;;;;;;;-1.95;100.00;100455.03;5112337;28;20035;-74
2021/12/09 03:30:58;;;;;;;40.40;19.98;;;;;;;-1.95;100.00;100449.84;5108944;28;20089;-76
2021/12/09 03:33:24;;;;;;;36.10;16.60;;;;;;;-1.93;100.00;100467.09;5112272;28;20077;-74
2021/12/09 03:35:57;;;;;;;47.80;18.27;;;;;;;-1.91;100.00;100467.84;5112323;28;20478;-78
2021/12/09 03:38:23;;;;;;;37.72;18.80;;;;;;;-1.99;100.00;100468.31;5110925;28;20027;-76
2021/12/09 03:40:49;;;;;;;42.25;20.45;;;;;;;-2.02;100.00;100469.34;5102035;28;20073;-75
2021/12/09 03:43:15;;;;;;;45.35;18.42;;;;;;;-1.86;100.00;100484.81;5110919;28;20020;-73
2021/12/09 03:45:40;;;;;;;49.15;18.25;;;;;;;-1.84;100.00;100475.16;5107804;28;20020;-76
2021/12/09 03:48:06;;;;;;;43.47;18.42;;;;;;;-1.87;100.00;100477.97;5110866;28;20427;-74
2021/12/09 03:50:31;;;;;;;40.22;17.45;;;;;;;-1.84;100.00;100484.72;5112145;28;20093;-73
2021/12/09 03:52:57;;;;;;;34.28;17.98;;;;;;;-1.85;100.00;100483.88;5109719;28;20030;-74
2021/12/09 03:55:22;;;;;;;42.05;19.45;;;;;;;-1.85;100.00;100483.06;5108424;28;20027;-77
2021/12/09 03:57:48;;;;;;;41.83;17.58;;;;;;;-1.80;100.00;100494.00;5111194;28;20032;-73
2021/12/09 04:00:14;;;;;;;44.45;20.42;;;;;;;-1.84;100.00;100484.72;5111663;28;20032;-73
2021/12/09 04:02:40;;;;;;;43.13;18.98;;;;;;;-1.82;100.00;100485.47;5111964;28;20099;-77
2021/12/09 04:05:07;;;;;;;39.55;18.52;;;;;;;-1.82;100.00;100482.88;5112225;28;20032;-75
2021/12/09 04:07:32;;;;;;;45.45;18.92;;;;;;;-1.84;100.00;100490.75;5104724;28;20110;-76
2021/12/09 04:09:58;;;;;;;42.08;19.02;;;;;;;-1.75;100.00;100499.75;5108757;28;20562;-77
2021/12/09 04:12:24;;;;;;;34.20;16.48;;;;;;;-1.85;100.00;100488.25;5111042;28;20043;-75
2021/12/09 04:14:49;;;;;;;36.85;17.73;;;;;;;-1.86;100.00;100486.59;5110848;28;20023;-76
2021/12/09 04:17:17;;;;;;;49.00;19.33;;;;;;;-1.86;100.00;100494.38;5113631;28;20023;-74
2021/12/09 04:19:47;;;;;;;33.67;15.80;;;;;;;-1.79;100.00;100506.91;5114708;27;20039;-76
2021/12/09 04:22:18;;;;;;;41.45;16.70;;;;;;;-1.80;100.00;100499.22;5102536;27;20457;-75
2021/12/09 04:24:44;;;;;;;34.10;16.52;;;;;;;-1.83;100.00;100500.25;5099115;28;20058;-76
2021/12/09 04:27:10;;;;;;;39.55;17.77;;;;;;;-1.83;100.00;100502.84;5113490;28;20031;-76
2021/12/09 04:29:35;;;;;;;51.60;19.65;;;;;;;-1.82;100.00;100511.47;5114685;28;20392;-77
2021/12/09 04:32:01;;;;;;;50.97;19.45;;;;;;;-1.79;100.00;100509.50;5110886;28;20027;-75
2021/12/09 04:34:27;;;;;;;35.95;19.25;;;;;;;-1.78;100.00;100513.78;5115623;28;20073;-75
2021/12/09 04:36:52;;;;;;;38.58;17.13;;;;;;;-1.77;100.00;100512.00;5112492;28;20072;-76
2021/12/09 04:39:18;;;;;;;42.90;18.45;;;;;;;-1.71;100.00;100509.03;5113840;28;20478;-74
2021/12/09 04:41:44;;;;;;;45.28;18.38;;;;;;;-1.81;100.00;100502.75;5113608;28;20020;-73
2021/12/09 04:44:10;;;;;;;52.70;20.10;;;;;;;-1.75;100.00;100499.75;5114468;28;20027;-75
2021/12/09 04:46:36;;;;;;;38.83;19.05;;;;;;;-1.82;100.00;100495.88;5099292;28;20239;-79
2021/12/09 04:49:03;;;;;;;41.65;20.40;;;;;;;-1.70;100.00;100505.50;5113114;28;20055;-76
2021/12/09 04:51:28;;;;;;;37.85;17.90;;;;;;;-1.74;100.00;100502.25;5105168;28;20115;-76
2021/12/09 04:53:54;;;;;;;45.70;18.95;;;;;;;-1.72;100.00;100508.19;5108033;28;20114;-74
2021/12/09 04:56:19;;;;;;;35.95;18.75;;;;;;;-1.67;100.00;100507.91;5108822;28;20051;-75
2021/12/09 04:58:45;;;;;;;38.00;18.73;;;;;;;-1.64;100.00;100510.31;5108777;28;20492;-74
2021/12/09 05:01:11;;;;;;;44.92;21.30;;;;;;;-1.59;100.00;100510.03;5107183;28;20569;-75
2021/12/09 05:03:36;;;;;;;50.20;23.27;;;;;;;-1.65;100.00;100520.81;5098012;28;20040;-75
2021/12/09 05:06:02;;;;;;;37.97;19.48;;;;;;;-1.61;100.00;100530.94;5095478;28;20039;-73
2021/12/09 05:08:31;;;;;;;31.17;17.60;;;;;;;-1.40;100.00;100519.16;5099196;28;20020;-74
2021/12/09 05:13:28;;;;;;;44.35;19.52;;;;;;;-1.03;100.00;100537.56;5102728;28;20039;-77
2021/12/09 05:15:55;;;;;;;54.67;20.23;;;;;;;-1.14;100.00;100542.66;5096504;28;20024;-74
2021/12/09 05:18:22;;;;;;;59.10;19.65;;;;;;;-0.49;100.00;100540.06;5096436;28;20028;-75
2021/12/09 05:20:48;;;;;;;34.20;17.48;;;;;;;-0.97;100.00;100534.56;5106859;28;20030;-76
2021/12/09 05:23:16;;;;;;;41.08;18.45;;;;;;;-1.15;100.00;100536.63;5104452;28;20378;-75
2021/12/09 05:25:42;;;;;;;38.75;18.08;;;;;;;-1.29;100.00;100518.47;5108193;28;20490;-74
2021/12/09 05:28:10;;;;;;;44.58;18.63;;;;;;;-1.22;100.00;100537.97;5104219;28;20466;-75
2021/12/09 05:32:07;;;;;;;42.53;18.88;;;;;;;-1.03;100.00;100544.56;5106137;28;20066;-75
2021/12/09 05:33:24;;;;;;;45.97;20.77;;;;;;;-1.05;100.00;100543.81;5102192;28;20513;-77
2021/12/09 05:35:49;;;;;;;49.28;23.35;;;;;;;-1.24;100.00;100544.22;5106759;28;20031;-72
2021/12/09 05:38:15;;;;;;;47.10;18.63;;;;;;;-0.75;100.00;100536.59;5103702;28;20028;-73
2021/12/09 05:40:40;;;;;;;48.53;19.90;;;;;;;-1.06;100.00;100540.38;5107785;28;20023;-72
2021/12/09 05:43:05;;;;;;;34.28;19.10;;;;;;;-1.16;100.00;100552.34;5104603;28;20038;-73
2021/12/09 05:45:31;;;;;;;33.60;16.77;;;;;;;-1.03;100.00;100548.00;5098845;28;20022;-72
2021/12/09 05:47:59;;;;;;;53.67;17.67;;;;;;;-1.16;100.00;100555.78;5102455;28;20150;-70
2021/12/09 05:50:25;;;;;;;42.95;19.15;;;;;;;-1.22;100.00;100548.38;5105229;28;20024;-71
2021/12/09 05:52:50;;;;;;;39.03;17.48;;;;;;;-1.16;100.00;100553.19;5103683;28;20387;-71
2021/12/09 05:55:16;;;;;;;45.75;17.98;;;;;;;-1.11;100.00;100553.69;5096940;28;20020;-70
2021/12/09 05:57:41;;;;;;;43.67;19.08;;;;;;;-1.16;100.00;100554.94;5106886;28;20059;-73
2021/12/09 06:00:08;;;;;;;44.25;20.33;;;;;;;-1.22;100.00;100527.53;5103617;28;20020;-71
2021/12/09 06:02:35;;;;;;;35.00;18.50;;;;;;;-1.09;100.00;100558.00;5110532;28;20040;-71
2021/12/09 06:05:03;;;;;;;34.97;17.65;;;;;;;-1.10;100.00;100559.75;5111783;28;20023;-72
2021/12/09 06:07:28;;;;;;;38.58;18.05;;;;;;;-1.01;100.00;100566.13;5109488;28;20427;-72
2021/12/09 06:09:55;;;;;;;50.72;18.52;;;;;;;-1.05;100.00;100570.69;5109657;28;20081;-70
2021/12/09 06:12:21;;;;;;;34.75;19.20;;;;;;;-0.80;100.00;100564.75;5109604;28;20026;-71
2021/12/09 06:14:46;;;;;;;40.70;19.65;;;;;;;-0.91;100.00;100575.84;5104298;28;20024;-71
2021/12/09 06:17:12;;;;;;;44.78;20.63;;;;;;;-0.84;100.00;100579.72;5107534;28;20028;-71
2021/12/09 06:19:37;;;;;;;35.38;18.80;;;;;;;-0.92;100.00;100583.75;5107920;28;20019;-70
2021/12/09 06:22:03;;;;;;;39.50;17.80;;;;;;;-0.97;100.00;100593.63;5104275;28;20073;-75
2021/12/09 06:24:28;;;;;;;49.72;20.40;;;;;;;-0.85;100.00;100603.25;5105340;28;20048;-72
2021/12/09 06:26:54;;;;;;;46.88;19.83;;;;;;;-0.91;100.00;100593.25;5098883;28;20036;-67
2021/12/09 06:29:19;;;;;;;50.90;19.45;;;;;;;-0.92;100.00;100595.00;5100869;28;20035;-74
2021/12/09 06:31:45;;;;;;;37.22;17.02;;;;;;;-0.93;100.00;100582.09;5108892;28;20072;-76
2021/12/09 06:34:12;;;;;;;38.67;17.77;;;;;;;-0.96;100.00;100584.88;5106119;28;20122;-74
2021/12/09 06:36:39;;;;;;;50.58;19.50;;;;;;;-0.80;100.00;100600.38;5106425;28;20111;-74
2021/12/09 06:39:05;;;;;;;43.33;19.73;;;;;;;-0.87;100.00;100594.72;5110034;28;20027;-74
2021/12/09 06:41:31;;;;;;;41.80;19.27;;;;;;;-0.96;100.00;100571.88;5111561;28;20030;-74
2021/12/09 06:43:57;;;;;;;34.60;18.08;;;;;;;-0.87;100.00;100592.94;5110185;28;20431;-73
2021/12/09 06:46:23;;;;;;;44.50;18.63;;;;;;;-0.84;100.00;100578.88;5110903;28;20054;-74
2021/12/09 06:48:48;;;;;;;50.10;18.42;;;;;;;-0.74;100.00;100592.13;5109287;28;20028;-74
2021/12/09 06:51:14;;;;;;;40.55;20.77;;;;;;;-0.79;100.00;100596.81;5105520;28;20055;-75
2021/12/09 06:53:39;;;;;;;47.20;21.42;;;;;;;-0.60;100.00;100607.69;5100268;28;20435;-75
2021/12/09 06:56:05;;;;;;;46.45;21.63;;;;;;;-0.71;100.00;100592.78;5095403;28;20024;-74
2021/12/09 06:58:31;;;;;;;40.72;19.27;;;;;;;-0.63;100.00;100603.53;5101419;28;20492;-74
2021/12/09 07:00:59;;;;;;;39.42;19.35;;;;;;;-0.63;100.00;100595.72;5110382;28;20031;-74
2021/12/09 07:03:25;;;;;;;47.35;21.73;;;;;;;-0.52;100.00;100594.97;5109761;28;20071;-75
2021/12/09 07:05:52;;;;;;;47.17;18.90;;;;;;;-0.57;100.00;100595.31;5113335;28;20055;-73
2021/12/09 07:08:18;;;;;;;41.05;18.38;;;;;;;-0.50;100.00;100600.13;5110539;28;20501;-75
2021/12/09 07:10:44;;;;;;;48.47;20.45;;;;;;;-0.57;100.00;100602.28;5105965;28;20028;-75
2021/12/09 07:13:10;;;;;;;54.63;22.15;;;;;;;-0.42;100.00;100590.84;5107534;28;20092;-75
2021/12/09 07:15:36;;;;;;;36.50;19.73;;;;;;;-0.29;100.00;100575.22;5116746;28;20077;-74
2021/12/09 07:18:02;;;;;;;46.78;18.70;;;;;;;-0.22;100.00;100599.94;5118053;28;20020;-74
2021/12/09 07:20:28;;;;;;;38.42;17.73;;;;;;;-0.30;100.00;100603.03;5110540;28;20032;-75
2021/12/09 07:22:55;;;;;;;46.47;20.58;;;;;;;-0.33;100.00;100600.66;5112027;28;20043;-75
2021/12/09 07:25:22;;;;;;;52.70;20.77;;;;;;;-0.15;100.00;100597.72;5109916;28;20038;-74
2021/12/09 07:27:47;;;;;;;44.90;22.13;;;;;;;0.06;100.00;100601.47;5111229;28;20035;-75
2021/12/09 07:30:15;;;;;;;54.55;21.88;;;;;;;0.13;100.00;100596.66;5112121;28;20545;-75
2021/12/09 07:32:41;;;;;;;48.28;20.52;;;;;;;0.20;100.00;100600.53;5110911;28;20024;-76
2021/12/09 07:35:08;;;;;;;58.08;24.38;;;;;;;-0.11;100.00;100609.63;5111943;28;20401;-75
2021/12/09 07:37:36;;;;;;;47.60;19.70;;;;;;;0.13;100.00;100607.09;5110912;28;20031;-74
2021/12/09 07:40:04;;;;;;;48.92;22.20;;;;;;;0.24;100.00;100607.22;5103853;28;20051;-74
2021/12/09 07:42:30;;;;;;;44.33;19.80;;;;;;;0.30;100.00;100606.78;5110813;28;20020;-74
2021/12/09 07:44:55;;;;;;;47.38;22.98;;;;;;;0.24;100.00;100613.25;5111958;28;20134;-75
2021/12/09 07:47:21;;;;;;;46.17;19.58;;;;;;;0.17;100.00;100617.22;5110968;28;20026;-74
2021/12/09 07:49:46;;;;;;;48.50;20.08;;;;;;;0.08;100.00;100612.66;5112218;28;20517;-76
2021/12/09 07:52:12;;;;;;;42.10;18.88;;;;;;;0.28;100.00;100621.69;5109135;28;20028;-75
2021/12/09 07:54:37;;;;;;;38.15;18.50;;;;;;;0.35;100.00;100619.50;5107901;28;20044;-75
2021/12/09 07:57:03;;;;;;;51.72;20.48;;;;;;;0.10;100.00;100620.38;5114696;28;20019;-75
2021/12/09 07:59:29;;;;;;;46.78;19.65;;;;;;;0.38;100.00;100619.28;5114712;27;20497;-74
2021/12/09 08:01:54;;;;;;;50.63;20.02;;;;;;;0.67;100.00;100617.25;5116292;28;20043;-75
2021/12/09 08:04:21;;;;;;;38.38;19.92;;;;;;;0.59;100.00;100619.53;5115537;28;20050;-74
2021/12/09 08:06:46;;;;;;;46.53;19.77;;;;;;;0.78;100.00;100617.31;5105499;28;20119;-75
2021/12/09 08:09:12;;;;;;;39.75;19.85;;;;;;;0.95;100.00;100614.28;5107476;28;20027;-75
2021/12/09 08:11:39;;;;;;;59.38;23.58;;;;;;;1.08;100.00;100616.88;5115688;28;20019;-75
2021/12/09 08:14:06;;;;;;;43.83;19.90;;;;;;;1.22;98.99;100616.69;5115502;28;20495;-75
2021/12/09 08:16:37;;;;;;;46.58;19.38;;;;;;;1.28;98.28;100618.88;5114350;28;20024;-75
2021/12/09 08:19:08;;;;;;;48.00;19.70;;;;;;;0.85;100.00;100622.91;5114180;28;20028;-75
2021/12/09 08:21:35;;;;;;;51.03;21.65;;;;;;;0.70;100.00;100630.06;5112901;28;20106;-75
2021/12/09 08:24:01;;;;;;;44.97;20.20;;;;;;;0.96;100.00;100612.56;5114399;28;20034;-74
2021/12/09 08:26:27;;;;;;;49.47;23.10;;;;;;;0.36;100.00;100613.31;5115249;28;20051;-75
2021/12/09 08:28:53;;;;;;;51.70;22.25;;;;;;;0.81;100.00;100617.94;5114469;28;20055;-74
2021/12/09 08:31:18;;;;;;;43.55;19.63;;;;;;;0.65;100.00;100590.41;5114194;28;20027;-74
2021/12/09 08:33:44;;;;;;;51.95;22.67;;;;;;;0.76;100.00;100611.38;5114973;27;20114;-75
2021/12/09 08:36:10;;;;;;;49.80;22.58;;;;;;;0.43;100.00;100619.78;5110150;28;20028;-75
2021/12/09 08:38:35;;;;;;;48.55;22.23;;;;;;;0.63;100.00;100629.66;5113949;28;20031;-75
2021/12/09 08:41:02;;;;;;;43.08;21.90;;;;;;;0.59;100.00;100623.00;5115165;28;20051;-74
2021/12/09 08:43:28;;;;;;;52.53;21.75;;;;;;;0.71;100.00;100626.50;5114535;28;20424;-75
2021/12/09 08:45:54;;;;;;;67.07;24.27;;;;;;;0.52;100.00;100627.81;5114400;28;20056;-74
2021/12/09 08:48:21;;;;;;;47.30;23.35;;;;;;;0.27;100.00;100612.19;5110822;28;20109;-75
2021/12/09 08:50:47;;;;;;;52.83;21.27;;;;;;;0.66;100.00;100610.34;5106958;28;20040;-74
2021/12/09 08:53:18;;;;;;;56.20;22.52;;;;;;;0.92;100.00;100606.69;5114168;28;20031;-76
2021/12/09 08:55:44;;;;;;;55.25;23.75;;;;;;;0.77;100.00;100611.25;5113886;28;20110;-75
2021/12/09 08:58:11;;;;;;;56.97;21.73;;;;;;;0.72;100.00;100604.69;5113729;27;20496;-75
2021/12/09 09:00:37;;;;;;;48.60;21.00;;;;;;;0.92;100.00;100603.25;5114605;28;20027;-75
2021/12/09 09:03:03;;;;;;;52.78;21.90;;;;;;;1.14;99.96;100610.38;5104737;28;20071;-75
2021/12/09 09:05:30;;;;;;;47.42;21.60;;;;;;;1.17;98.88;100608.34;5105698;28;20134;-75
2021/12/09 09:07:56;;;;;;;64.70;24.00;;;;;;;0.76;100.00;100608.75;5113591;28;20024;-75
2021/12/09 09:10:24;;;;;;;40.67;19.73;;;;;;;0.93;100.00;100602.31;5113565;28;20390;-74
2021/12/09 09:12:51;;;;;;;50.25;21.13;;;;;;;1.30;99.17;100610.91;5110227;28;20684;-75
2021/12/09 09:15:19;;;;;;;43.30;20.83;;;;;;;0.89;99.35;100613.94;5113032;28;20031;-75
2021/12/09 09:17:46;;;;;;;49.33;21.95;;;;;;;1.02;100.00;100606.84;5111504;28;20019;-75
2021/12/09 09:20:14;;;;;;;50.88;21.02;;;;;;;0.82;100.00;100610.94;5113335;27;20061;-75
2021/12/09 09:22:41;;;;;;;51.38;21.38;;;;;;;0.73;100.00;100608.94;5114145;28;20393;-75
2021/12/09 09:25:10;;;;;;;46.28;22.85;;;;;;;0.88;100.00;100599.19;5114057;28;20549;-76
2021/12/09 09:27:36;;;;;;;49.30;22.73;;;;;;;0.86;100.00;100593.25;5114004;28;20031;-75
2021/12/09 09:30:05;;;;;;;47.08;20.67;;;;;;;0.65;100.00;100591.22;5112720;28;20024;-75
2021/12/09 09:32:31;;;;;;;46.25;18.23;;;;;;;0.98;100.00;100593.19;5108294;28;20035;-75
2021/12/09 09:34:56;;;;;;;42.03;21.95;;;;;;;1.44;99.34;100588.97;5113034;28;20487;-76
2021/12/09 09:37:22;;;;;;;48.45;22.85;;;;;;;1.21;97.37;100572.38;5112831;28;20035;-75
2021/12/09 09:39:48;;;;;;;39.47;19.70;;;;;;;1.24;98.57;100588.66;5113783;28;20032;-76
2021/12/09 09:44:49;;;;;;;48.38;21.52;;;;;;;1.44;98.76;100594.19;5107757;28;20339;-75
2021/12/09 09:47:16;;;;;;;45.65;21.73;;;;;;;1.29;99.80;100586.53;5108069;28;20031;-74
2021/12/09 09:49:43;;;;;;;58.03;25.25;;;;;;;1.30;100.00;100606.50;5112464;28;20019;-75
2021/12/09 09:52:10;;;;;;;50.60;22.23;;;;;;;1.27;98.97;100598.06;5101381;28;20078;-75
2021/12/09 09:54:40;;;;;;;58.58;23.65;;;;;;;1.29;98.60;100607.47;5108167;28;20035;-74
2021/12/09 09:57:07;;;;;;;56.63;24.85;;;;;;;1.69;97.37;100599.28;5112476;28;20035;-75
2021/12/09 09:59:32;;;;;;;59.80;25.02;;;;;;;1.97;98.07;100597.16;5102163;28;20024;-76
2021/12/09 10:01:58;;;;;;;46.47;20.58;;;;;;;1.87;96.70;100594.41;5107806;28;20551;-75
2021/12/09 10:04:45;;;;;;;55.03;23.52;;;;;;;1.53;97.11;100591.72;5112228;28;20043;-75
2021/12/09 10:07:13;;;;;;;51.45;22.25;;;;;;;1.45;97.52;100601.91;5113266;28;20028;-75
2021/12/09 10:09:39;;;;;;;54.33;23.88;;;;;;;1.32;99.49;100598.53;5110945;28;20028;-75
2021/12/09 10:12:05;;;;;;;60.70;24.27;;;;;;;1.33;99.10;100615.91;5113324;28;20096;-75
2021/12/09 10:14:33;;;;;;;50.53;25.50;;;;;;;1.35;98.03;100614.84;5109721;28;20059;-75
2021/12/09 10:17:07;;;;;;;52.30;23.08;;;;;;;1.12;100.00;100613.09;5113284;28;20024;-75
2021/12/09 10:19:34;;;;;;;58.08;24.33;;;;;;;0.89;99.62;100612.16;5112090;28;20071;-75
2021/12/09 10:22:20;;;;;;;50.13;22.77;;;;;;;1.05;100.00;100619.72;5111770;28;20032;-74
2021/12/09 10:24:48;;;;;;;56.22;24.13;;;;;;;1.15;100.00;100596.34;5100258;28;20581;-76
2021/12/09 10:27:30;;;;;;;50.38;22.88;;;;;;;1.06;100.00;100601.31;5109535;28;20470;-74
2021/12/09 10:30:02;;;;;;;59.63;26.25;;;;;;;1.53;100.00;100594.34;5113009;28;20397;-76
2021/12/09 10:32:33;;;;;;;52.40;20.30;;;;;;;1.41;98.91;100595.28;5112025;28;20093;-76
2021/12/09 10:35:20;;;;;;;55.13;23.65;;;;;;;1.28;97.31;100587.50;5112954;28;20031;-75
2021/12/09 10:37:48;;;;;;;59.72;22.52;;;;;;;1.64;96.91;100596.16;5112972;28;20041;-74
2021/12/09 10:40:14;;;;;;;55.25;25.15;;;;;;;1.58;98.25;100580.94;5112880;28;20015;-75
2021/12/09 10:42:50;;;;;;;55.33;25.00;;;;;;;2.11;95.96;100566.34;5101253;28;20389;-75
2021/12/09 10:45:23;;;;;;;41.10;20.60;;;;;;;2.20;94.17;100567.41;5105874;28;20086;-75
2021/12/09 10:53:35;;;;;;;38.42;21.63;;;;;;;2.35;93.89;100558.38;5112428;28;20050;-75
2021/12/09 10:56:09;;;;;;;45.83;22.45;;;;;;;2.20;93.72;100563.03;5099274;28;20023;-75
2021/12/09 10:58:37;;;;;;;43.80;20.27;;;;;;;2.10;94.25;100563.84;5111125;28;20031;-76
2021/12/09 11:01:07;;;;;;;43.45;21.98;;;;;;;1.92;96.89;100569.56;5112327;28;20042;-75
2021/12/09 11:03:40;;;;;;;52.05;23.77;;;;;;;2.04;96.41;100569.56;5110988;28;20451;-75
2021/12/09 11:06:09;;;;;;;81.10;35.92;;;;;;;2.02;96.69;100567.06;5111413;28;20032;-75
2021/12/09 11:08:44;;;;;;;55.50;24.67;;;;;;;1.87;97.70;100553.38;5111702;28;20114;-75
2021/12/09 11:11:11;;;;;;;53.20;23.73;;;;;;;1.86;96.94;100548.28;5093879;28;20035;-76
2021/12/09 11:13:51;;;;;;;52.15;23.27;;;;;;;1.74;95.89;100544.81;5112357;28;20024;-76
2021/12/09 11:16:26;;;;;;;40.00;20.33;;;;;;;1.66;95.78;100557.66;5096018;28;20016;-75